createdAt,value
2023-01-15T00:06:44.163Z,94918.47
2023-01-15T00:16:51.478Z,94903.00
2023-01-15T00:27:11.469Z,94885.66
2023-01-15T00:37:15.361Z,94882.50
2023-01-15T00:47:17.848Z,94860.88
2023-01-15T00:57:21.703Z,94848.88
2023-01-15T01:07:24.146Z,94833.34
2023-01-15T01:17:28.165Z,94830.94
2023-01-15T01:27:31.028Z,94820.00
2023-01-15T01:37:34.834Z,94818.13
2023-01-15T01:47:37.582Z,94794.91
2023-01-15T01:57:41.822Z,94792.00
2023-01-15T02:07:44.319Z,94766.88
2023-01-15T02:17:50.775Z,94749.28
2023-01-15T02:27:56.543Z,94741.28
2023-01-15T02:38:00.951Z,94728.69
2023-01-15T02:48:06.960Z,94741.53
2023-01-15T02:58:12.056Z,94715.88
2023-01-15T03:08:16.297Z,94714.56
2023-01-15T03:18:21.132Z,94706.81
2023-01-15T03:28:26.680Z,94708.94
2023-01-15T03:38:30.745Z,94704.69
2023-01-15T03:48:36.366Z,94720.44
2023-01-15T03:58:41.986Z,94693.47
2023-01-15T04:08:46.906Z,94714.03
2023-01-15T04:18:49.403Z,94700.16
2023-01-15T04:28:53.190Z,94670.81
2023-01-15T04:38:57.655Z,94691.88
2023-01-15T04:49:01.476Z,94676.41
2023-01-15T04:59:03.985Z,94661.44
2023-01-15T05:09:08.254Z,94660.13
2023-01-15T05:19:11.063Z,94659.31
2023-01-15T05:29:15.274Z,94659.00
2023-01-15T05:39:17.914Z,94678.75
2023-01-15T05:49:23.038Z,94671.25
2023-01-15T05:59:26.280Z,94683.28
2023-01-15T06:09:30.157Z,94734.31
2023-01-15T06:19:33.311Z,94714.44
2023-01-15T06:29:37.135Z,94772.41
2023-01-15T06:39:39.586Z,94754.66
2023-01-15T06:49:43.386Z,94774.19
2023-01-15T06:59:45.878Z,94804.69
2023-01-15T07:09:50.163Z,94824.50
2023-01-15T07:19:52.707Z,94862.22
2023-01-15T07:29:56.544Z,94866.19
2023-01-15T07:39:59.037Z,94889.72
2023-01-15T07:50:03.093Z,94929.81
2023-01-15T08:00:06.881Z,94963.97
2023-01-15T08:10:12.608Z,94974.97
2023-01-15T08:20:16.813Z,94993.19
2023-01-15T08:30:23.319Z,95020.50
2023-01-15T08:40:25.929Z,95039.41
2023-01-15T08:50:29.737Z,95054.94
2023-01-15T09:00:32.223Z,95082.22
2023-01-15T09:10:36.177Z,95087.13
2023-01-15T09:20:38.678Z,95095.00
2023-01-15T09:30:42.654Z,95120.81
2023-01-15T09:40:48.427Z,95134.72
2023-01-15T09:50:58.518Z,95147.72
2023-01-15T10:01:01.102Z,95151.09
2023-01-15T10:11:06.546Z,95142.38
2023-01-15T10:21:15.732Z,95173.75
2023-01-15T10:31:21.156Z,95202.34
2023-01-15T10:41:41.647Z,95202.81
2023-01-15T10:51:46.407Z,95198.78
2023-01-15T11:01:50.172Z,95209.41
2023-01-15T11:12:15.827Z,95211.47
2023-01-15T11:22:19.965Z,95234.91
2023-01-15T11:32:29.459Z,95249.16
2023-01-15T11:42:49.542Z,95266.91
2023-01-15T11:52:55.018Z,95300.38
2023-01-15T12:03:01.433Z,95303.03
2023-01-15T12:13:09.108Z,95330.00
2023-01-15T12:23:23.355Z,95317.88
2023-01-15T12:33:33.607Z,95337.88
2023-01-15T12:43:53.686Z,95333.53
2023-01-15T12:54:01.615Z,95334.63
2023-01-15T13:04:12.414Z,95334.94
2023-01-15T13:14:17.649Z,95341.94
2023-01-15T13:24:28.775Z,95363.75
2023-01-15T13:34:35.775Z,95368.53
2023-01-15T13:44:42.827Z,95385.38
2023-01-15T13:54:46.813Z,95398.88
2023-01-15T14:04:49.337Z,95400.56
2023-01-15T14:15:04.464Z,95388.38
2023-01-15T14:25:31.711Z,95396.56
2023-01-15T14:35:42.057Z,95408.91
2023-01-15T14:45:46.579Z,95412.97
2023-01-15T14:55:51.312Z,95409.22
2023-01-15T15:05:54.211Z,95407.69
2023-01-15T15:16:01.111Z,95405.56
2023-01-15T15:26:05.199Z,95421.75
2023-01-15T15:36:09.957Z,95437.19
2023-01-15T15:46:43.287Z,95427.63
2023-01-15T15:56:49.248Z,95411.72
2023-01-15T16:06:52.080Z,95402.00
2023-01-15T16:16:56.000Z,95380.44
2023-01-15T16:27:01.011Z,95385.66
2023-01-15T16:37:04.884Z,95377.84
2023-01-15T16:47:07.685Z,95376.53
2023-01-15T17:07:39.645Z,95381.19
2023-01-15T17:17:42.458Z,95370.66
2023-01-15T17:27:46.276Z,95380.22
2023-01-15T17:37:48.686Z,95377.06
2023-01-15T17:47:52.495Z,95381.13
2023-01-15T17:58:12.559Z,95363.34
2023-01-15T18:08:18.745Z,95359.66
2023-01-15T18:18:21.223Z,95350.56
2023-01-15T18:28:25.134Z,95354.34
2023-01-15T18:38:27.734Z,95355.97
2023-01-15T18:48:31.695Z,95366.94
2023-01-15T18:58:34.198Z,95344.19
2023-01-15T19:08:38.104Z,95337.13
2023-01-15T19:18:52.325Z,95329.97
2023-01-15T19:28:56.101Z,95285.97
2023-01-15T19:38:58.587Z,95265.13
2023-01-15T19:49:19.871Z,95252.22
2023-01-15T19:59:22.360Z,95224.88
2023-01-15T20:09:26.285Z,95198.84
2023-01-15T20:19:28.762Z,95182.31
2023-01-15T20:29:32.569Z,95175.47
2023-01-15T20:39:35.074Z,95164.06
2023-01-15T20:49:38.919Z,95144.84
2023-01-15T20:59:41.436Z,95131.72
2023-01-15T21:09:45.556Z,95109.44
2023-01-15T21:19:48.103Z,95107.75
2023-01-15T21:29:51.983Z,95090.44
2023-01-15T21:39:54.479Z,95078.19
2023-01-15T21:49:59.054Z,95060.25
2023-01-15T22:00:01.600Z,95039.94
2023-01-15T22:10:06.171Z,95032.59
2023-01-15T22:20:09.691Z,95030.00
2023-01-15T22:30:15.807Z,95021.66
2023-01-15T22:40:18.327Z,94998.63
2023-01-15T22:50:22.216Z,94979.13
2023-01-15T23:00:24.774Z,94969.94
2023-01-15T23:10:28.596Z,94954.75
2023-01-15T23:20:31.080Z,94921.38
2023-01-15T23:30:35.175Z,94915.41
2023-01-15T23:40:39.763Z,94894.97
2023-01-15T23:50:43.609Z,94884.72
